Time;durP1;ratioP1;P1;durP2;ratioP2;P2;SDS_P1;SDS_P2;PMS_P1;PMS_P2;Temp;Humidity;BMP_temperature;BMP_pressure;BME280_temperature;BME280_humidity;BME280_pressure;Samples;Min_cycle;Max_cycle;Signal;HPM_P1;HPM_P2
2022/03/09 00:01:35;;;;;;;0.10;0.10;;;3.20;60.30;;;;;;5027800;28;20017;-83
2022/03/09 00:04:01;;;;;;;1.90;1.80;;;3.20;60.70;;;;;;5012602;28;20018;-83
2022/03/09 00:06:27;;;;;;;0.63;0.60;;;3.20;60.00;;;;;;5028777;28;20399;-83
2022/03/09 00:08:53;;;;;;;0.13;0.13;;;3.10;59.60;;;;;;5034599;28;20175;-83
2022/03/09 00:11:19;;;;;;;0.10;0.10;;;3.00;60.00;;;;;;5012373;28;20025;-83
2022/03/09 00:13:45;;;;;;;0.20;0.20;;;3.00;60.40;;;;;;5033143;28;20029;-83
2022/03/09 00:16:11;;;;;;;0.20;0.20;;;2.90;60.60;;;;;;5027483;28;20058;-84
2022/03/09 00:18:36;;;;;;;0.20;0.20;;;3.00;61.20;;;;;;5036943;28;20029;-84
2022/03/09 00:21:02;;;;;;;0.10;0.10;;;2.90;60.80;;;;;;5011868;28;20168;-83
2022/03/09 00:23:28;;;;;;;0.10;0.10;;;2.90;60.80;;;;;;5032469;28;20040;-82
2022/03/09 00:25:54;;;;;;;0.45;0.45;;;2.90;60.70;;;;;;5032065;28;20033;-85
2022/03/09 00:28:20;;;;;;;0.10;0.10;;;2.90;61.00;;;;;;5025096;28;20036;-82
2022/03/09 00:30:46;;;;;;;0.10;0.10;;;2.80;61.10;;;;;;5021833;28;20112;-84
2022/03/09 00:33:12;;;;;;;0.15;0.15;;;2.90;61.20;;;;;;5030341;28;20048;-83
2022/03/09 00:35:42;;;;;;;5.22;3.72;;;2.80;60.70;;;;;;5029367;28;20037;-82
2022/03/09 00:38:08;;;;;;;2.67;2.58;;;2.80;61.30;;;;;;5028383;28;20070;-83
2022/03/09 00:40:35;;;;;;;0.10;0.10;;;2.80;62.00;;;;;;5025528;28;20037;-82
2022/03/09 00:43:01;;;;;;;0.10;0.10;;;2.80;61.80;;;;;;5023981;28;20108;-83
2022/03/09 00:45:26;;;;;;;0.32;0.32;;;2.80;63.10;;;;;;5031255;28;20037;-83
2022/03/09 00:47:52;;;;;;;5.93;2.83;;;2.80;62.40;;;;;;5038479;28;20030;-80
2022/03/09 00:50:18;;;;;;;0.10;0.10;;;2.80;62.50;;;;;;5029983;28;20014;-83
2022/03/09 00:52:47;;;;;;;0.40;0.38;;;2.70;65.10;;;;;;5036521;28;20104;-84
2022/03/09 00:55:16;;;;;;;5.03;2.28;;;2.60;67.30;;;;;;5015083;28;20022;-83
2022/03/09 00:57:42;;;;;;;0.30;0.30;;;2.50;68.60;;;;;;5025166;28;20064;-84
2022/03/09 01:00:08;;;;;;;0.10;0.10;;;2.60;69.70;;;;;;5010129;28;20034;-84
2022/03/09 01:02:40;;;;;;;0.90;0.90;;;2.60;70.10;;;;;;5026408;28;20030;-82
2022/03/09 01:05:07;;;;;;;0.20;0.20;;;2.70;71.10;;;;;;5021966;28;20033;-83
2022/03/09 01:07:33;;;;;;;0.10;0.10;;;2.70;71.50;;;;;;5024879;28;20053;-84
2022/03/09 01:09:58;;;;;;;0.10;0.10;;;2.70;71.10;;;;;;5025206;28;20511;-84
2022/03/09 01:12:24;;;;;;;1.85;1.75;;;2.60;72.20;;;;;;5027429;28;20029;-84
2022/03/09 01:14:50;;;;;;;0.30;0.30;;;2.50;74.50;;;;;;5021685;28;20033;-82
2022/03/09 01:17:15;;;;;;;2.08;1.98;;;2.40;75.50;;;;;;5023941;28;20562;-83
2022/03/09 01:19:41;;;;;;;0.93;0.93;;;2.50;75.60;;;;;;5024138;28;20021;-83
2022/03/09 01:22:07;;;;;;;2.33;2.22;;;3.30;77.10;;;;;;5024049;28;20028;-83
2022/03/09 01:24:33;;;;;;;1.15;1.13;;;2.40;76.80;;;;;;5010073;28;20048;-81
2022/03/09 01:26:58;;;;;;;0.65;0.65;;;2.50;78.40;;;;;;5027141;28;20376;-83
2022/03/09 01:29:24;;;;;;;0.10;0.10;;;2.50;79.90;;;;;;5027765;28;20022;-83
2022/03/09 01:31:50;;;;;;;0.93;0.85;;;2.30;83.10;;;;;;5027299;28;20032;-82
2022/03/09 01:34:16;;;;;;;2.83;1.73;;;2.10;88.40;;;;;;5049393;23;20056;-81
2022/03/09 01:36:41;;;;;;;4.93;4.47;;;2.20;90.90;;;;;;5041164;28;20037;-80
2022/03/09 01:39:07;;;;;;;0.22;0.22;;;2.20;91.60;;;;;;5019464;28;20052;-80
2022/03/09 01:41:33;;;;;;;0.10;0.10;;;2.30;91.50;;;;;;5028935;28;20029;-81
2022/03/09 01:44:12;;;;;;;0.55;0.55;;;2.30;91.20;;;;;;5019604;28;20113;-80
2022/03/09 01:46:38;;;;;;;2.45;2.35;;;2.20;92.70;;;;;;5013815;28;20030;-80
2022/03/09 01:49:06;;;;;;;0.10;0.10;;;2.10;94.40;;;;;;5014104;28;20052;-80
2022/03/09 01:51:34;;;;;;;0.10;0.10;;;2.10;94.20;;;;;;5015480;28;20026;-81
2022/03/09 01:54:00;;;;;;;0.20;0.20;;;2.10;92.60;;;;;;5020378;28;20087;-81
2022/03/09 01:56:27;;;;;;;5.13;4.63;;;2.10;91.40;;;;;;5015037;28;20026;-80
2022/03/09 01:58:52;;;;;;;0.20;0.20;;;2.10;91.30;;;;;;5014369;28;20025;-80
2022/03/09 02:01:18;;;;;;;0.20;0.20;;;2.00;91.60;;;;;;5014308;28;20034;-80
2022/03/09 02:03:44;;;;;;;7.43;3.72;;;2.10;91.20;;;;;;5014380;28;20048;-81
2022/03/09 02:06:10;;;;;;;0.10;0.10;;;2.00;91.10;;;;;;5021530;28;20013;-80
2022/03/09 02:11:21;;;;;;;0.60;0.60;;;2.00;90.80;;;;;;5016681;28;20443;-80
2022/03/09 02:13:47;;;;;;;0.20;0.20;;;2.00;90.90;;;;;;5014633;28;20026;-80
2022/03/09 02:16:15;;;;;;;0.10;0.10;;;1.90;90.30;;;;;;5012537;28;20026;-81
2022/03/09 02:18:41;;;;;;;0.10;0.10;;;1.80;91.50;;;;;;5005581;28;20033;-80
2022/03/09 02:21:10;;;;;;;0.10;0.10;;;1.70;91.80;;;;;;4996100;28;20101;-80
2022/03/09 02:23:36;;;;;;;0.17;0.17;;;1.70;92.10;;;;;;5013953;28;20491;-81
2022/03/09 02:26:02;;;;;;;4.00;1.38;;;1.60;92.60;;;;;;5010388;28;20037;-80
2022/03/09 02:28:27;;;;;;;2.83;2.65;;;1.70;93.40;;;;;;5012821;28;20108;-80
2022/03/09 02:30:57;;;;;;;0.13;0.13;;;1.80;93.40;;;;;;5012768;28;20060;-80
2022/03/09 02:33:23;;;;;;;1.27;1.27;;;1.80;92.80;;;;;;5014623;28;20037;-81
2022/03/09 02:35:52;;;;;;;0.10;0.10;;;1.80;92.90;;;;;;5012000;28;20026;-80
2022/03/09 02:38:17;;;;;;;0.10;0.10;;;1.90;92.30;;;;;;5011533;28;20136;-81
2022/03/09 02:40:43;;;;;;;0.10;0.10;;;1.80;92.20;;;;;;5021030;28;20543;-80
2022/03/09 02:43:09;;;;;;;0.22;0.22;;;1.80;92.30;;;;;;5006729;28;20113;-80
2022/03/09 02:45:35;;;;;;;0.10;0.10;;;1.70;92.30;;;;;;5019130;28;20078;-80
2022/03/09 02:48:00;;;;;;;0.10;0.10;;;1.60;93.40;;;;;;5038610;28;20021;-80
2022/03/09 02:50:26;;;;;;;0.10;0.10;;;1.70;94.30;;;;;;5010437;28;20030;-81
2022/03/09 02:52:52;;;;;;;0.10;0.10;;;1.70;94.80;;;;;;5009016;28;20037;-81
2022/03/09 02:55:18;;;;;;;0.10;0.10;;;1.80;94.00;;;;;;5010717;28;20084;-81
2022/03/09 02:57:44;;;;;;;0.10;0.10;;;1.90;94.10;;;;;;5013672;28;20514;-80
2022/03/09 03:00:11;;;;;;;0.10;0.10;;;1.90;93.60;;;;;;5009097;28;20034;-81
2022/03/09 03:02:38;;;;;;;2.90;2.72;;;1.80;93.70;;;;;;5010469;28;20053;-81
2022/03/09 03:05:04;;;;;;;0.10;0.10;;;1.80;94.60;;;;;;5006129;28;20048;-80
2022/03/09 03:07:30;;;;;;;0.10;0.10;;;1.80;95.90;;;;;;5010075;28;20033;-80
2022/03/09 03:09:56;;;;;;;0.35;0.35;;;1.80;96.00;;;;;;5010688;28;20467;-80
2022/03/09 03:12:22;;;;;;;0.10;0.10;;;1.80;97.10;;;;;;5009701;28;20494;-80
2022/03/09 03:14:48;;;;;;;0.10;0.10;;;1.80;97.40;;;;;;5009874;28;20105;-79
2022/03/09 03:17:14;;;;;;;0.10;0.10;;;1.80;96.20;;;;;;5011116;28;20570;-81
2022/03/09 03:19:39;;;;;;;0.10;0.10;;;1.70;95.90;;;;;;5011186;28;20088;-79
2022/03/09 03:22:05;;;;;;;0.10;0.10;;;1.60;98.10;;;;;;5010172;28;20018;-80
2022/03/09 03:24:31;;;;;;;0.98;0.98;;;1.50;99.50;;;;;;5009983;28;20026;-81
2022/03/09 03:26:57;;;;;;;0.10;0.10;;;1.50;98.90;;;;;;5010035;28;20021;-81
2022/03/09 03:29:23;;;;;;;0.20;0.20;;;1.50;98.80;;;;;;5008313;28;20392;-82
2022/03/09 03:31:49;;;;;;;0.10;0.10;;;1.40;99.50;;;;;;5010925;28;20394;-80
2022/03/09 03:34:14;;;;;;;0.10;0.10;;;1.40;99.90;;;;;;5010701;28;20041;-80
2022/03/09 03:36:40;;;;;;;0.10;0.10;;;1.40;99.90;;;;;;5010738;28;20030;-80
2022/03/09 03:39:05;;;;;;;0.65;0.65;;;1.40;99.90;;;;;;5007264;28;20420;-81
2022/03/09 03:41:31;;;;;;;0.30;0.30;;;1.50;99.90;;;;;;5010943;28;20052;-80
2022/03/09 03:43:57;;;;;;;0.20;0.20;;;1.60;99.90;;;;;;5010532;28;20420;-80
2022/03/09 03:46:22;;;;;;;0.10;0.10;;;1.60;99.90;;;;;;4990134;28;20068;-80
2022/03/09 03:48:48;;;;;;;0.10;0.10;;;1.60;99.90;;;;;;5010415;28;20034;-80
2022/03/09 03:51:15;;;;;;;0.10;0.10;;;1.40;99.90;;;;;;5010103;28;20037;-81
2022/03/09 03:53:41;;;;;;;0.10;0.10;;;1.30;99.90;;;;;;5005595;28;20022;-80
2022/03/09 03:56:06;;;;;;;0.77;0.77;;;1.20;99.90;;;;;;5005876;28;20037;-81
2022/03/09 03:58:32;;;;;;;0.10;0.10;;;1.10;99.90;;;;;;5012696;28;20450;-80
2022/03/09 04:00:58;;;;;;;0.08;0.08;;;1.10;99.90;;;;;;5010564;28;20105;-81
2022/03/09 04:03:24;;;;;;;0.10;0.10;;;1.10;99.90;;;;;;5007375;28;20620;-81
2022/03/09 04:05:49;;;;;;;0.10;0.10;;;1.20;99.90;;;;;;4997272;28;20435;-80
2022/03/09 04:08:16;;;;;;;0.10;0.10;;;1.30;99.90;;;;;;4993113;28;20063;-80
2022/03/09 04:10:42;;;;;;;0.10;0.10;;;1.30;99.90;;;;;;5010264;28;20026;-81
2022/03/09 04:13:08;;;;;;;0.20;0.20;;;1.30;99.90;;;;;;5000912;28;20030;-80
2022/03/09 04:15:33;;;;;;;1.27;1.27;;;1.20;99.90;;;;;;5009672;28;20162;-81
2022/03/09 04:17:59;;;;;;;0.10;0.10;;;1.20;99.90;;;;;;5010549;28;20026;-80
2022/03/09 04:20:25;;;;;;;0.10;0.10;;;1.20;99.90;;;;;;5012277;28;20566;-81
2022/03/09 04:22:51;;;;;;;0.10;0.10;;;1.20;99.90;;;;;;5011103;28;20079;-80
2022/03/09 04:25:17;;;;;;;0.43;0.43;;;1.50;99.90;;;;;;5014053;28;20348;-81
2022/03/09 04:27:43;;;;;;;1.13;1.02;;;1.00;99.90;;;;;;5011838;28;20418;-80
2022/03/09 04:30:10;;;;;;;0.10;0.10;;;1.00;99.90;;;;;;5012117;28;20133;-82
2022/03/09 04:32:36;;;;;;;0.10;0.10;;;1.10;99.90;;;;;;5013008;28;20068;-79
2022/03/09 04:35:03;;;;;;;0.10;0.10;;;1.10;99.90;;;;;;5013896;28;20014;-80
2022/03/09 04:37:33;;;;;;;0.10;0.10;;;1.20;99.90;;;;;;5008736;28;20050;-80
2022/03/09 04:39:59;;;;;;;0.10;0.10;;;1.20;99.90;;;;;;5012148;28;20524;-81
2022/03/09 04:42:27;;;;;;;0.57;0.57;;;1.20;99.90;;;;;;5013815;28;20034;-79
2022/03/09 04:44:53;;;;;;;0.30;0.30;;;1.20;99.90;;;;;;5020830;28;20026;-79
2022/03/09 04:47:20;;;;;;;0.10;0.10;;;1.10;99.90;;;;;;5024699;28;20026;-81
2022/03/09 04:49:46;;;;;;;0.20;0.20;;;1.00;99.90;;;;;;5010697;28;20034;-80
2022/03/09 04:52:12;;;;;;;0.10;0.10;;;0.40;99.90;;;;;;5014438;28;20025;-80
2022/03/09 04:54:38;;;;;;;0.10;0.10;;;1.00;99.90;;;;;;5013596;28;20538;-81
2022/03/09 04:57:04;;;;;;;1.33;1.05;;;1.00;99.90;;;;;;4997724;28;20053;-81
2022/03/09 04:59:29;;;;;;;0.10;0.10;;;1.00;99.90;;;;;;5011726;28;20037;-79
2022/03/09 05:01:55;;;;;;;0.10;0.10;;;1.00;99.90;;;;;;5016096;28;20490;-79
2022/03/09 05:04:21;;;;;;;0.20;0.20;;;1.00;99.90;;;;;;5016769;28;20022;-81
2022/03/09 05:06:47;;;;;;;0.10;0.10;;;1.00;99.90;;;;;;5017894;28;20124;-80
2022/03/09 05:09:12;;;;;;;0.10;0.10;;;0.90;99.90;;;;;;5031780;28;20022;-80
2022/03/09 05:11:38;;;;;;;0.20;0.20;;;0.90;99.90;;;;;;4998283;28;20033;-80
2022/03/09 05:14:04;;;;;;;0.68;0.68;;;0.90;99.90;;;;;;5008630;28;20053;-81
2022/03/09 05:16:30;;;;;;;0.10;0.10;;;0.90;99.90;;;;;;5019056;28;20137;-81
2022/03/09 05:18:56;;;;;;;0.10;0.10;;;1.00;99.90;;;;;;5014492;28;20638;-81
2022/03/09 05:21:21;;;;;;;0.10;0.10;;;0.90;99.90;;;;;;5022583;28;20032;-81
2022/03/09 05:23:47;;;;;;;0.10;0.10;;;1.00;99.90;;;;;;5015277;28;20030;-80
2022/03/09 05:26:13;;;;;;;5.45;4.90;;;1.00;99.90;;;;;;5014800;28;20052;-80
2022/03/09 05:28:39;;;;;;;11.20;7.22;;;0.90;99.90;;;;;;5017703;28;20034;-81
2022/03/09 05:31:04;;;;;;;0.10;0.10;;;0.90;99.90;;;;;;5015490;28;20431;-80
2022/03/09 05:33:30;;;;;;;0.10;0.10;;;0.90;99.90;;;;;;5013946;28;20116;-80
2022/03/09 05:35:56;;;;;;;0.10;0.10;;;0.90;99.90;;;;;;5016149;28;20026;-80
2022/03/09 05:38:21;;;;;;;0.10;0.10;;;0.90;99.90;;;;;;5016781;28;20030;-80
2022/03/09 05:40:47;;;;;;;0.25;0.25;;;0.80;99.90;;;;;;5013208;28;20053;-79
2022/03/09 05:43:13;;;;;;;0.10;0.10;;;0.80;99.90;;;;;;5020539;28;20050;-80
2022/03/09 05:45:39;;;;;;;2.13;2.03;;;0.80;99.90;;;;;;5016140;28;20052;-81
2022/03/09 05:48:04;;;;;;;0.73;0.73;;;0.80;99.90;;;;;;5015455;28;20030;-81
2022/03/09 05:50:30;;;;;;;0.77;0.77;;;0.90;99.90;;;;;;5010859;28;20500;-81
2022/03/09 05:52:56;;;;;;;0.30;0.30;;;0.90;99.90;;;;;;4998380;28;20394;-81
2022/03/09 05:55:22;;;;;;;0.10;0.10;;;0.90;99.90;;;;;;5016628;28;20045;-81
2022/03/09 05:57:48;;;;;;;0.15;0.15;;;0.90;99.90;;;;;;5017670;28;20018;-81
2022/03/09 06:00:15;;;;;;;0.30;0.30;;;0.80;99.90;;;;;;4994764;28;20112;-81
2022/03/09 06:02:40;;;;;;;0.20;0.20;;;0.80;99.90;;;;;;5017079;28;20041;-80
2022/03/09 06:05:07;;;;;;;0.10;0.10;;;0.80;99.90;;;;;;5019318;28;20538;-81
2022/03/09 06:07:34;;;;;;;0.20;0.20;;;0.60;99.90;;;;;;5010679;28;20033;-80
2022/03/09 06:09:59;;;;;;;0.10;0.10;;;0.60;99.90;;;;;;5017810;28;20029;-84
2022/03/09 06:12:25;;;;;;;2.80;2.60;;;0.60;99.90;;;;;;5020603;28;20026;-81
2022/03/09 06:14:51;;;;;;;0.63;0.63;;;0.40;99.90;;;;;;5014949;28;20032;-80
2022/03/09 06:17:16;;;;;;;0.20;0.20;;;0.40;99.90;;;;;;5017632;28;20037;-81
2022/03/09 06:19:42;;;;;;;0.15;0.15;;;0.50;99.90;;;;;;5027330;28;20053;-80
2022/03/09 06:22:08;;;;;;;0.22;0.22;;;0.50;99.90;;;;;;5037628;28;20018;-82
2022/03/09 06:24:33;;;;;;;0.10;0.10;;;0.50;99.90;;;;;;5021654;28;20026;-82
2022/03/09 06:26:59;;;;;;;0.10;0.10;;;0.60;99.90;;;;;;5021184;28;20057;-81
2022/03/09 06:29:26;;;;;;;0.10;0.10;;;0.70;99.90;;;;;;5027078;28;20040;-81
2022/03/09 06:31:52;;;;;;;0.43;0.43;;;0.70;99.90;;;;;;5035564;28;20026;-82
2022/03/09 06:34:17;;;;;;;0.82;0.82;;;0.60;99.90;;;;;;5016315;28;20036;-72
2022/03/09 06:36:44;;;;;;;0.10;0.10;;;0.40;99.90;;;;;;5006995;28;20486;-75
2022/03/09 06:39:14;;;;;;;0.38;0.38;;;0.20;99.90;;;;;;5007964;28;20109;-72
2022/03/09 06:41:41;;;;;;;1.17;1.10;;;0.00;99.90;;;;;;5006942;28;20033;-71
2022/03/09 06:44:06;;;;;;;0.10;0.10;;;0.10;99.90;;;;;;5016628;28;20029;-82
2022/03/09 06:46:32;;;;;;;0.10;0.10;;;0.20;99.90;;;;;;5017596;28;20275;-82
2022/03/09 06:48:58;;;;;;;0.10;0.10;;;0.50;99.90;;;;;;5005071;28;20088;-81
2022/03/09 06:51:24;;;;;;;0.10;0.10;;;0.70;99.90;;;;;;4999387;28;20032;-80
2022/03/09 06:53:49;;;;;;;0.10;0.10;;;0.80;99.90;;;;;;5001369;28;20061;-82
2022/03/09 06:56:18;;;;;;;0.55;0.55;;;0.80;99.90;;;;;;5003620;28;20033;-83
2022/03/09 06:58:44;;;;;;;1.70;1.58;;;1.50;99.90;;;;;;5024651;28;20022;-81
2022/03/09 07:01:10;;;;;;;0.10;0.10;;;0.80;99.90;;;;;;5020689;28;20048;-78
2022/03/09 07:03:35;;;;;;;0.20;0.20;;;0.80;99.90;;;;;;5016706;28;20097;-80
2022/03/09 07:06:01;;;;;;;2.55;1.38;;;0.90;99.90;;;;;;5020624;28;20030;-80
2022/03/09 07:08:28;;;;;;;0.10;0.10;;;0.90;99.90;;;;;;5023437;28;20038;-81
2022/03/09 07:10:54;;;;;;;0.10;0.10;;;0.80;99.90;;;;;;5024104;28;20542;-85
2022/03/09 07:13:19;;;;;;;0.10;0.10;;;0.80;99.90;;;;;;5027747;28;20026;-81
2022/03/09 07:15:45;;;;;;;0.10;0.10;;;0.90;99.90;;;;;;5028293;28;20059;-82
2022/03/09 07:18:11;;;;;;;0.10;0.10;;;0.80;99.90;;;;;;5028331;28;20017;-81
2022/03/09 07:20:37;;;;;;;0.10;0.10;;;0.80;99.90;;;;;;5020690;28;20025;-83
2022/03/09 07:23:03;;;;;;;0.38;0.38;;;0.80;99.90;;;;;;5024178;28;20028;-81
2022/03/09 07:25:29;;;;;;;0.10;0.10;;;0.90;99.90;;;;;;5017906;28;20067;-82
2022/03/09 07:27:54;;;;;;;0.20;0.20;;;1.00;99.90;;;;;;5027523;28;20052;-81
2022/03/09 07:30:20;;;;;;;0.10;0.10;;;1.10;99.90;;;;;;5025218;28;20026;-82
2022/03/09 07:32:48;;;;;;;0.10;0.10;;;1.20;99.90;;;;;;5023014;28;20502;-83
2022/03/09 07:35:14;;;;;;;0.20;0.20;;;1.30;99.90;;;;;;5018882;28;20068;-81
2022/03/09 07:37:40;;;;;;;0.10;0.10;;;1.30;99.90;;;;;;5020226;28;20014;-81
2022/03/09 07:40:08;;;;;;;0.40;0.40;;;1.40;99.90;;;;;;5027007;22;20065;-76
2022/03/09 07:42:34;;;;;;;0.20;0.20;;;1.50;99.90;;;;;;5005412;28;20030;-76
2022/03/09 07:45:00;;;;;;;0.10;0.10;;;1.50;99.90;;;;;;5014441;28;20022;-76
2022/03/09 07:47:26;;;;;;;0.10;0.10;;;1.50;99.90;;;;;;5010362;28;20054;-75
2022/03/09 07:49:52;;;;;;;0.10;0.10;;;1.60;99.90;;;;;;5011603;28;20121;-76
2022/03/09 07:52:24;;;;;;;0.10;0.10;;;1.70;99.90;;;;;;4993473;28;20033;-77
2022/03/09 07:54:50;;;;;;;3.15;2.95;;;1.80;99.90;;;;;;5012853;28;20026;-75
2022/03/09 07:57:15;;;;;;;0.65;0.65;;;1.80;99.90;;;;;;5013346;28;20029;-76
2022/03/09 07:59:41;;;;;;;0.10;0.10;;;1.90;99.90;;;;;;5013762;28;20026;-75
2022/03/09 08:02:07;;;;;;;0.10;0.10;;;2.00;99.90;;;;;;5014275;28;20033;-78
2022/03/09 08:04:34;;;;;;;0.10;0.10;;;2.00;99.90;;;;;;4996685;28;20026;-77
2022/03/09 08:07:00;;;;;;;0.10;0.10;;;2.10;99.90;;;;;;5013520;28;20030;-77
2022/03/09 08:09:26;;;;;;;2.80;2.67;;;2.30;99.90;;;;;;5015116;28;20072;-75
2022/03/09 08:11:52;;;;;;;0.10;0.10;;;2.40;99.90;;;;;;5013999;28;20499;-78
2022/03/09 08:14:18;;;;;;;0.10;0.10;;;2.50;99.90;;;;;;5013306;28;20411;-78
2022/03/09 08:16:44;;;;;;;0.40;0.40;;;2.70;99.90;;;;;;4994678;28;20034;-76
2022/03/09 08:19:09;;;;;;;0.10;0.10;;;2.70;99.90;;;;;;5011092;28;20033;-76
2022/03/09 08:21:35;;;;;;;0.28;0.28;;;2.80;99.90;;;;;;5020563;28;20093;-75
2022/03/09 08:24:01;;;;;;;0.93;0.93;;;2.80;99.90;;;;;;5020700;28;20056;-74
2022/03/09 08:26:27;;;;;;;1.75;1.45;;;3.00;99.90;;;;;;5012267;28;20034;-77
2022/03/09 08:28:53;;;;;;;0.40;0.40;;;3.90;99.90;;;;;;5012348;28;20238;-77
2022/03/09 08:31:19;;;;;;;0.30;0.30;;;3.20;99.90;;;;;;5002103;28;20069;-77
2022/03/09 08:33:44;;;;;;;0.10;0.10;;;3.30;99.60;;;;;;5011786;28;20506;-77
2022/03/09 08:36:13;;;;;;;0.45;0.45;;;3.40;99.10;;;;;;5012626;28;20121;-77
2022/03/09 08:38:39;;;;;;;0.10;0.10;;;3.40;97.70;;;;;;5010612;28;20030;-76
2022/03/09 08:41:05;;;;;;;3.25;2.22;;;3.40;97.40;;;;;;5013896;28;20037;-78
2022/03/09 08:43:31;;;;;;;0.65;0.65;;;3.50;97.30;;;;;;5013604;28;20026;-77
2022/03/09 08:45:56;;;;;;;0.10;0.10;;;3.60;97.80;;;;;;5011467;28;20030;-76
2022/03/09 08:48:26;;;;;;;1.10;1.10;;;3.80;96.20;;;;;;5013470;28;20030;-76
2022/03/09 08:50:55;;;;;;;0.10;0.10;;;3.90;95.20;;;;;;4997214;28;20022;-76
2022/03/09 08:53:21;;;;;;;0.20;0.20;;;4.00;94.00;;;;;;4995739;28;20037;-77
2022/03/09 08:55:48;;;;;;;0.10;0.10;;;4.00;93.70;;;;;;5011901;28;20119;-78
2022/03/09 08:58:14;;;;;;;1.08;0.68;;;4.10;94.10;;;;;;5011087;28;20030;-76
2022/03/09 09:00:40;;;;;;;0.10;0.10;;;4.30;93.40;;;;;;4995015;28;20459;-76
2022/03/09 09:03:06;;;;;;;0.10;0.10;;;4.40;90.40;;;;;;5011979;28;20025;-78
2022/03/09 09:05:32;;;;;;;2.47;2.28;;;4.50;90.40;;;;;;5004443;28;20029;-77
2022/03/09 09:07:57;;;;;;;0.20;0.20;;;4.60;88.00;;;;;;5015605;28;20092;-77
2022/03/09 09:10:23;;;;;;;3.85;3.40;;;4.80;87.20;;;;;;5010839;28;20026;-79
2022/03/09 09:12:50;;;;;;;1.02;0.52;;;5.00;85.40;;;;;;4994126;28;20403;-78
2022/03/09 09:15:16;;;;;;;0.10;0.10;;;5.10;83.50;;;;;;5008639;28;20045;-78
2022/03/09 09:17:42;;;;;;;0.20;0.20;;;5.30;81.40;;;;;;5011383;28;20852;-76
2022/03/09 09:20:09;;;;;;;0.10;0.10;;;5.20;78.10;;;;;;5014178;28;20101;-76
2022/03/09 09:22:35;;;;;;;0.10;0.10;;;5.30;78.10;;;;;;5012925;28;20026;-79
2022/03/09 09:25:01;;;;;;;0.20;0.20;;;5.50;77.90;;;;;;5011554;28;20080;-75
2022/03/09 09:27:27;;;;;;;0.10;0.10;;;5.50;78.40;;;;;;5013191;28;20034;-74
2022/03/09 09:29:53;;;;;;;0.17;0.17;;;5.70;76.00;;;;;;5012253;28;20369;-78
2022/03/09 09:32:19;;;;;;;0.10;0.10;;;5.70;74.20;;;;;;5011414;28;20059;-76
2022/03/09 09:34:45;;;;;;;0.50;0.50;;;5.90;72.80;;;;;;5011267;28;20030;-76
2022/03/09 09:37:11;;;;;;;0.10;0.10;;;5.90;71.60;;;;;;5013258;28;20160;-76
2022/03/09 09:39:36;;;;;;;0.10;0.10;;;6.00;70.70;;;;;;5022705;28;20037;-77
2022/03/09 09:42:03;;;;;;;0.10;0.10;;;6.10;70.30;;;;;;4996516;28;20633;-74
2022/03/09 09:44:30;;;;;;;0.17;0.17;;;6.20;70.60;;;;;;5015744;28;20114;-77
2022/03/09 09:46:56;;;;;;;0.10;0.10;;;6.30;69.20;;;;;;5016219;28;20017;-76
2022/03/09 09:49:24;;;;;;;0.30;0.30;;;6.40;69.10;;;;;;5014447;28;20088;-80
2022/03/09 09:51:51;;;;;;;0.30;0.30;;;6.50;68.50;;;;;;5022745;28;20483;-81
2022/03/09 09:54:21;;;;;;;1.30;1.27;;;6.60;67.50;;;;;;5028421;28;20033;-84
2022/03/09 09:56:47;;;;;;;0.10;0.10;;;6.70;67.40;;;;;;5027143;28;20025;-85
2022/03/09 09:59:13;;;;;;;0.20;0.20;;;6.80;66.50;;;;;;5015614;28;20026;-82
2022/03/09 10:01:41;;;;;;;0.10;0.10;;;7.00;66.20;;;;;;5013716;28;20018;-82
2022/03/09 10:04:08;;;;;;;1.65;1.55;;;7.10;65.90;;;;;;5015870;28;20026;-82
2022/03/09 10:06:37;;;;;;;0.25;0.25;;;7.10;66.00;;;;;;5015701;28;20049;-83
2022/03/09 10:09:09;;;;;;;0.10;0.10;;;7.20;66.40;;;;;;5014617;28;20020;-83
2022/03/09 10:11:55;;;;;;;0.30;0.30;;;7.30;65.90;;;;;;4997238;28;20042;-84
2022/03/09 10:14:44;;;;;;;0.17;0.17;;;7.40;65.40;;;;;;5019520;28;20033;-83
2022/03/09 10:17:12;;;;;;;0.10;0.10;;;7.50;64.80;;;;;;5004053;28;20582;-82
2022/03/09 10:19:43;;;;;;;4.68;4.30;;;7.50;64.40;;;;;;5015983;28;20053;-85
2022/03/09 10:22:26;;;;;;;0.75;0.75;;;7.60;63.40;;;;;;5012606;28;20213;-84
2022/03/09 10:24:54;;;;;;;0.10;0.10;;;7.60;63.50;;;;;;5014547;28;20219;-82
2022/03/09 10:27:38;;;;;;;2.42;1.52;;;7.70;63.10;;;;;;5014830;28;20272;-85
2022/03/09 10:30:16;;;;;;;0.10;0.10;;;7.80;62.90;;;;;;5016788;28;20049;-80
2022/03/09 10:32:52;;;;;;;0.10;0.10;;;7.80;62.70;;;;;;5006828;28;20030;-83
2022/03/09 10:35:42;;;;;;;0.20;0.20;;;7.90;62.50;;;;;;5004097;28;20085;-83
2022/03/09 10:38:22;;;;;;;0.73;0.73;;;7.90;61.90;;;;;;5007222;28;20042;-80
2022/03/09 10:40:50;;;;;;;0.20;0.20;;;8.00;61.20;;;;;;5014660;28;20052;-83
2022/03/09 10:43:19;;;;;;;1.65;1.58;;;8.00;61.40;;;;;;5015690;28;20668;-79
2022/03/09 10:46:10;;;;;;;0.17;0.17;;;8.20;61.50;;;;;;5016982;28;20018;-83
2022/03/09 10:48:55;;;;;;;0.10;0.10;;;8.30;60.50;;;;;;4998163;28;20034;-82
2022/03/09 10:51:29;;;;;;;2.88;2.65;;;8.40;60.00;;;;;;5014954;28;20061;-83
2022/03/09 10:53:57;;;;;;;1.13;1.10;;;8.40;59.50;;;;;;5020668;28;20018;-78
2022/03/09 10:56:23;;;;;;;0.10;0.10;;;8.40;58.70;;;;;;5021102;28;20037;-79
2022/03/09 10:58:50;;;;;;;0.10;0.10;;;8.50;58.70;;;;;;5020190;28;20100;-79
2022/03/09 11:01:17;;;;;;;5.28;4.82;;;8.50;58.20;;;;;;5018608;28;20100;-79
2022/03/09 11:03:45;;;;;;;9.13;2.50;;;8.60;57.90;;;;;;5012243;28;20026;-80
2022/03/09 11:06:11;;;;;;;0.77;0.77;;;8.80;57.40;;;;;;5011552;28;20038;-79
2022/03/09 11:08:38;;;;;;;0.10;0.10;;;8.90;57.30;;;;;;5011759;28;20050;-79
2022/03/09 11:11:06;;;;;;;0.10;0.10;;;9.00;56.20;;;;;;5013407;28;20032;-77
2022/03/09 11:13:37;;;;;;;0.17;0.17;;;9.00;55.70;;;;;;4988313;28;20026;-81
2022/03/09 11:16:05;;;;;;;1.65;1.55;;;9.10;54.80;;;;;;5011133;28;20110;-79
2022/03/09 11:18:32;;;;;;;0.17;0.17;;;9.10;54.40;;;;;;4994040;28;20034;-80
2022/03/09 11:21:00;;;;;;;0.35;0.35;;;9.10;52.70;;;;;;5012544;28;20046;-85
2022/03/09 11:23:28;;;;;;;1.13;1.13;;;9.10;52.40;;;;;;5012434;28;20041;-81
2022/03/09 11:26:21;;;;;;;0.28;0.28;;;9.30;51.10;;;;;;4992833;28;20088;-79
2022/03/09 11:28:47;;;;;;;0.10;0.10;;;9.30;50.00;;;;;;5010608;28;20034;-80
2022/03/09 11:31:17;;;;;;;0.10;0.10;;;9.30;49.70;;;;;;4991606;28;20040;-79
2022/03/09 11:33:53;;;;;;;3.95;3.70;;;9.40;49.50;;;;;;5011962;28;20048;-80
2022/03/09 11:36:26;;;;;;;1.00;1.00;;;9.50;49.40;;;;;;5011745;28;20029;-78
2022/03/09 11:38:55;;;;;;;2.17;2.08;;;9.50;48.80;;;;;;5011635;28;20090;-83
2022/03/09 11:41:24;;;;;;;3.72;2.08;;;9.50;48.30;;;;;;4991515;28;20841;-80
2022/03/09 11:43:52;;;;;;;0.55;0.55;;;9.60;47.60;;;;;;5011358;28;20018;-80
2022/03/09 11:46:19;;;;;;;0.10;0.10;;;9.70;48.00;;;;;;5012368;28;20030;-80
2022/03/09 11:48:55;;;;;;;0.30;0.30;;;9.80;47.10;;;;;;4995196;28;20026;-79
2022/03/09 11:51:26;;;;;;;3.60;3.30;;;9.80;46.20;;;;;;4999239;28;20434;-80
2022/03/09 11:53:54;;;;;;;0.35;0.35;;;9.90;46.20;;;;;;5007182;28;20079;-82
2022/03/09 11:56:28;;;;;;;0.10;0.10;;;9.90;45.20;;;;;;5011045;28;20029;-76
2022/03/09 11:59:25;;;;;;;0.43;0.43;;;9.90;45.00;;;;;;5009188;28;20021;-78
2022/03/09 12:02:07;;;;;;;5.57;3.40;;;10.00;44.60;;;;;;5009688;28;20072;-78
2022/03/09 12:04:53;;;;;;;0.10;0.10;;;9.90;46.00;;;;;;5012237;28;20061;-75
2022/03/09 12:07:28;;;;;;;0.47;0.47;;;9.90;45.80;;;;;;5016380;28;20033;-79
2022/03/09 12:09:59;;;;;;;0.55;0.55;;;10.10;45.00;;;;;;5013361;28;20081;-79
2022/03/09 12:12:27;;;;;;;0.57;0.57;;;10.10;44.30;;;;;;5019015;28;20435;-78
2022/03/09 12:15:00;;;;;;;0.32;0.32;;;10.10;44.50;;;;;;5008888;28;20033;-67
2022/03/09 12:17:37;;;;;;;0.28;0.28;;;10.00;43.90;;;;;;4991741;28;20906;-66
2022/03/09 12:20:25;;;;;;;0.30;0.30;;;9.90;44.20;;;;;;5007755;28;20048;-84
2022/03/09 12:22:56;;;;;;;0.20;0.20;;;9.90;45.20;;;;;;5011191;28;20523;-80
2022/03/09 12:25:41;;;;;;;0.10;0.10;;;10.10;44.40;;;;;;5009576;28;20022;-80
2022/03/09 12:28:25;;;;;;;0.10;0.10;;;10.20;43.30;;;;;;5005889;28;20475;-81
2022/03/09 12:30:53;;;;;;;0.82;0.80;;;10.30;43.80;;;;;;5010558;28;20868;-80
2022/03/09 12:33:37;;;;;;;0.25;0.25;;;10.30;44.30;;;;;;5011870;28;20383;-80
2022/03/09 12:36:24;;;;;;;4.43;4.07;;;10.30;43.70;;;;;;4993713;28;20398;-82
2022/03/09 12:38:56;;;;;;;0.82;0.82;;;10.20;43.80;;;;;;5010791;28;20022;-81
2022/03/09 12:41:26;;;;;;;5.13;3.92;;;10.30;43.60;;;;;;5005725;28;20030;-79
2022/03/09 12:44:06;;;;;;;0.10;0.10;;;10.40;43.70;;;;;;5014178;28;20026;-80
2022/03/09 12:46:33;;;;;;;0.63;0.63;;;10.30;43.00;;;;;;5012972;28;20057;-78
2022/03/09 12:49:10;;;;;;;0.20;0.20;;;10.50;43.40;;;;;;5011578;28;20026;-79
2022/03/09 12:51:38;;;;;;;0.10;0.10;;;10.40;43.70;;;;;;5013808;28;20029;-78
2022/03/09 12:54:04;;;;;;;0.17;0.17;;;10.50;43.40;;;;;;5010304;28;20038;-79
2022/03/09 12:56:30;;;;;;;0.30;0.30;;;10.50;42.90;;;;;;4994587;28;20434;-79
2022/03/09 12:59:16;;;;;;;0.10;0.10;;;10.50;43.30;;;;;;5012433;28;20026;-77
2022/03/09 13:01:53;;;;;;;0.10;0.10;;;10.60;42.20;;;;;;5012112;28;20061;-78